Irons, MI (49644)

5:13 PM EST on February 05, 2016 (GMT -0500)
Manistee Nat'l Forest | | Change Station
CLOSE
Current Station
Personal Weather Station
Location: Irons, MI
Elevation: 787 ft
Nearby Weather Stations

Elev 787 ft 44.13 °N, 85.97 °W | Updated 19 seconds ago

Overcast
Overcast
27.9 °F
Feels Like 28 °F
N
2.2
Wind Variable Wind from NW
Gusts 4.5 mph

Today
High -- | Low -- °F
--% Chance of Precip.
Yesterday
High -- | Low -- °F
Precip. -- in
Pressure 30.30 in
Visibility 10.0 miles
Clouds Overcast 3200 ft
Windchill 28 °F
Dew Point 19 °F
Humidity 68%
Rainfall in
Snow Depth Not available.
7:57 AM 5:58 PM
Waning Crescent, 9% visible
METAR KMBL 052155Z AUTO 28008KT 10SM OVC032 M03/M09 A3030 RMK AO1
Pressure 30.30 in
Visibility 10.0 miles
Clouds Overcast 3200 ft
Windchill 28 °F
Dew Point 19 °F
Humidity 68%
Rainfall in
Snow Depth Not available.
7:57 AM 5:58 PM
Waning Crescent, 9% visible
METAR KMBL 052155Z AUTO 28008KT 10SM OVC032 M03/M09 A3030 RMK AO1

10-Day Weather Forecast

Almanac

Astronomy

Feb. 05, 2016 Rise Set
Actual Time
Civil Twilight
Nautical Twilight
Astronomical Twilight
Moon
Length of Visible Light
Length of Day
Tomorrow will be .
, % of the Moon is Illuminated

Today's Extremes

State Highs State Lows

Community

WunderPhotos

Upload Photos

1,890,876 photos uploaded!

WunderBlog® & News

Nearby

Air Quality

  Air Quality AQ Index Pollutant
Not available.

Snow Depth

Station Depth Elevation

Earthquake Activity

City Distance Mag. Time & Date
Minimum magnitude displayed is 2.5.

Coastal Water Temperatures

Place Temperature

Stations

Nearby Weather Stations

Station Location Temp. Windchill Dew Point Humidity Wind Precip. Elev Updated Type
                   

Watches & Warnings

There are currently no watches in effect.